sensor_id;sensor_type;location;lat;lon;timestamp;temperature;humidity
35541;DHT22;21650;48.840;9.162;2024-03-08T00:01:12;3.70;99.90
35541;DHT22;21650;48.840;9.162;2024-03-08T00:03:38;3.60;99.90
35541;DHT22;21650;48.840;9.162;2024-03-08T00:06:05;3.60;99.90
35541;DHT22;21650;48.840;9.162;2024-03-08T00:08:31;3.60;99.90
35541;DHT22;21650;48.840;9.162;2024-03-08T00:10:57;3.60;99.90
35541;DHT22;21650;48.840;9.162;2024-03-08T00:13:22;3.50;99.90
35541;DHT22;21650;48.840;9.162;2024-03-08T00:15:50;3.50;99.90
35541;DHT22;21650;48.840;9.162;2024-03-08T00:18:16;3.50;99.90
35541;DHT22;21650;48.840;9.162;2024-03-08T00:20:42;3.50;99.90
35541;DHT22;21650;48.840;9.162;2024-03-08T00:23:09;3.40;99.90
35541;DHT22;21650;48.840;9.162;2024-03-08T00:25:36;3.50;99.90
35541;DHT22;21650;48.840;9.162;2024-03-08T00:28:02;3.40;99.90
35541;DHT22;21650;48.840;9.162;2024-03-08T00:30:28;3.40;99.90
35541;DHT22;21650;48.840;9.162;2024-03-08T00:32:53;3.40;99.90
35541;DHT22;21650;48.840;9.162;2024-03-08T00:35:19;3.40;99.90
35541;DHT22;21650;48.840;9.162;2024-03-08T00:37:44;3.30;99.90
35541;DHT22;21650;48.840;9.162;2024-03-08T00:40:13;3.30;99.90
35541;DHT22;21650;48.840;9.162;2024-03-08T00:42:38;3.20;99.90
35541;DHT22;21650;48.840;9.162;2024-03-08T00:45:06;3.20;99.90
35541;DHT22;21650;48.840;9.162;2024-03-08T00:47:33;3.20;99.90
35541;DHT22;21650;48.840;9.162;2024-03-08T00:49:58;3.10;99.90
35541;DHT22;21650;48.840;9.162;2024-03-08T00:52:24;3.10;99.90
35541;DHT22;21650;48.840;9.162;2024-03-08T00:54:50;3.10;99.90
35541;DHT22;21650;48.840;9.162;2024-03-08T00:57:15;3.10;99.90
35541;DHT22;21650;48.840;9.162;2024-03-08T00:59:41;3.10;99.90
35541;DHT22;21650;48.840;9.162;2024-03-08T01:02:07;3.00;99.90
35541;DHT22;21650;48.840;9.162;2024-03-08T01:04:34;3.00;99.90
35541;DHT22;21650;48.840;9.162;2024-03-08T01:07:00;3.00;99.90
35541;DHT22;21650;48.840;9.162;2024-03-08T01:09:27;3.00;99.90
35541;DHT22;21650;48.840;9.162;2024-03-08T01:11:53;3.00;99.90
35541;DHT22;21650;48.840;9.162;2024-03-08T01:14:22;2.90;99.90
35541;DHT22;21650;48.840;9.162;2024-03-08T01:16:49;2.90;99.90
35541;DHT22;21650;48.840;9.162;2024-03-08T01:19:14;2.90;99.90
35541;DHT22;21650;48.840;9.162;2024-03-08T01:21:41;2.90;99.90
35541;DHT22;21650;48.840;9.162;2024-03-08T01:24:07;2.90;99.90
35541;DHT22;21650;48.840;9.162;2024-03-08T01:26:32;2.90;99.90
35541;DHT22;21650;48.840;9.162;2024-03-08T01:29:00;2.90;99.90
35541;DHT22;21650;48.840;9.162;2024-03-08T01:31:25;2.80;99.90
35541;DHT22;21650;48.840;9.162;2024-03-08T01:33:51;2.90;99.90
35541;DHT22;21650;48.840;9.162;2024-03-08T01:36:17;2.90;99.90
35541;DHT22;21650;48.840;9.162;2024-03-08T01:38:44;2.80;99.90
35541;DHT22;21650;48.840;9.162;2024-03-08T01:41:10;2.80;99.90
35541;DHT22;21650;48.840;9.162;2024-03-08T01:43:36;2.70;99.90
35541;DHT22;21650;48.840;9.162;2024-03-08T01:46:01;2.70;99.90
35541;DHT22;21650;48.840;9.162;2024-03-08T01:48:28;2.70;99.90
35541;DHT22;21650;48.840;9.162;2024-03-08T01:50:55;2.70;99.90
35541;DHT22;21650;48.840;9.162;2024-03-08T01:53:22;2.60;99.90
35541;DHT22;21650;48.840;9.162;2024-03-08T01:55:48;2.60;99.90
35541;DHT22;21650;48.840;9.162;2024-03-08T01:58:15;2.70;99.90
35541;DHT22;21650;48.840;9.162;2024-03-08T02:00:44;2.70;99.90
35541;DHT22;21650;48.840;9.162;2024-03-08T02:03:16;2.60;99.90
35541;DHT22;21650;48.840;9.162;2024-03-08T02:05:42;2.60;99.90
35541;DHT22;21650;48.840;9.162;2024-03-08T02:08:09;2.60;99.90
35541;DHT22;21650;48.840;9.162;2024-03-08T02:10:43;2.60;99.90
35541;DHT22;21650;48.840;9.162;2024-03-08T02:13:10;2.60;99.90
35541;DHT22;21650;48.840;9.162;2024-03-08T02:15:59;2.60;99.90
35541;DHT22;21650;48.840;9.162;2024-03-08T02:18:25;2.60;99.90
35541;DHT22;21650;48.840;9.162;2024-03-08T02:21:02;2.60;99.90
35541;DHT22;21650;48.840;9.162;2024-03-08T02:23:28;2.60;99.90
35541;DHT22;21650;48.840;9.162;2024-03-08T02:25:55;2.60;99.90
35541;DHT22;21650;48.840;9.162;2024-03-08T02:28:22;2.50;99.90
35541;DHT22;21650;48.840;9.162;2024-03-08T02:30:51;2.50;99.90
35541;DHT22;21650;48.840;9.162;2024-03-08T02:33:20;2.50;99.90
35541;DHT22;21650;48.840;9.162;2024-03-08T02:35:45;2.40;99.90
35541;DHT22;21650;48.840;9.162;2024-03-08T02:38:16;2.40;99.90
35541;DHT22;21650;48.840;9.162;2024-03-08T02:40:43;2.40;99.90
35541;DHT22;21650;48.840;9.162;2024-03-08T02:43:09;2.40;99.90
35541;DHT22;21650;48.840;9.162;2024-03-08T02:45:35;2.40;99.90
35541;DHT22;21650;48.840;9.162;2024-03-08T02:48:01;2.40;99.90
35541;DHT22;21650;48.840;9.162;2024-03-08T02:50:26;2.30;99.90
35541;DHT22;21650;48.840;9.162;2024-03-08T02:52:52;2.30;99.90
35541;DHT22;21650;48.840;9.162;2024-03-08T02:55:18;2.30;99.90
35541;DHT22;21650;48.840;9.162;2024-03-08T02:57:43;2.30;99.90
35541;DHT22;21650;48.840;9.162;2024-03-08T03:00:10;2.30;99.90
35541;DHT22;21650;48.840;9.162;2024-03-08T03:02:36;2.20;99.90
35541;DHT22;21650;48.840;9.162;2024-03-08T03:05:03;2.20;99.90
35541;DHT22;21650;48.840;9.162;2024-03-08T03:07:32;2.20;99.90
35541;DHT22;21650;48.840;9.162;2024-03-08T03:09:59;2.20;99.90
35541;DHT22;21650;48.840;9.162;2024-03-08T03:12:26;2.10;99.90
35541;DHT22;21650;48.840;9.162;2024-03-08T03:14:52;2.10;99.90
35541;DHT22;21650;48.840;9.162;2024-03-08T03:17:17;2.10;99.90
35541;DHT22;21650;48.840;9.162;2024-03-08T03:19:43;2.10;99.90
35541;DHT22;21650;48.840;9.162;2024-03-08T03:22:09;2.10;99.90
35541;DHT22;21650;48.840;9.162;2024-03-08T03:24:36;2.10;99.90
35541;DHT22;21650;48.840;9.162;2024-03-08T03:27:04;2.10;99.90
35541;DHT22;21650;48.840;9.162;2024-03-08T03:29:43;2.10;99.90
35541;DHT22;21650;48.840;9.162;2024-03-08T03:32:14;2.00;99.90
35541;DHT22;21650;48.840;9.162;2024-03-08T03:34:41;2.00;99.90
35541;DHT22;21650;48.840;9.162;2024-03-08T03:37:07;2.00;99.90
35541;DHT22;21650;48.840;9.162;2024-03-08T03:39:43;1.90;99.90
35541;DHT22;21650;48.840;9.162;2024-03-08T03:42:18;1.90;99.90
35541;DHT22;21650;48.840;9.162;2024-03-08T03:44:48;1.90;99.90
35541;DHT22;21650;48.840;9.162;2024-03-08T03:47:14;1.90;99.90
35541;DHT22;21650;48.840;9.162;2024-03-08T03:49:44;1.90;99.90
35541;DHT22;21650;48.840;9.162;2024-03-08T03:52:10;1.80;99.90
35541;DHT22;21650;48.840;9.162;2024-03-08T03:54:36;1.80;99.90
35541;DHT22;21650;48.840;9.162;2024-03-08T03:57:02;1.70;99.90
35541;DHT22;21650;48.840;9.162;2024-03-08T03:59:28;1.70;99.90
35541;DHT22;21650;48.840;9.162;2024-03-08T04:01:54;1.70;99.90
35541;DHT22;21650;48.840;9.162;2024-03-08T04:04:21;1.70;99.90
35541;DHT22;21650;48.840;9.162;2024-03-08T04:06:46;1.70;99.90
35541;DHT22;21650;48.840;9.162;2024-03-08T04:09:12;1.80;99.90
35541;DHT22;21650;48.840;9.162;2024-03-08T04:11:38;1.70;99.90
35541;DHT22;21650;48.840;9.162;2024-03-08T04:14:04;1.70;99.90
35541;DHT22;21650;48.840;9.162;2024-03-08T04:16:30;1.70;99.90
35541;DHT22;21650;48.840;9.162;2024-03-08T04:18:57;1.70;99.90
35541;DHT22;21650;48.840;9.162;2024-03-08T04:21:23;1.70;99.90
35541;DHT22;21650;48.840;9.162;2024-03-08T04:23:48;1.70;99.90
35541;DHT22;21650;48.840;9.162;2024-03-08T04:26:14;1.70;99.90
35541;DHT22;21650;48.840;9.162;2024-03-08T04:28:40;1.60;99.90
35541;DHT22;21650;48.840;9.162;2024-03-08T04:31:05;1.70;99.90
35541;DHT22;21650;48.840;9.162;2024-03-08T04:33:32;1.70;99.90
35541;DHT22;21650;48.840;9.162;2024-03-08T04:35:58;1.60;99.90
35541;DHT22;21650;48.840;9.162;2024-03-08T04:38:23;1.70;99.90
35541;DHT22;21650;48.840;9.162;2024-03-08T04:40:51;1.70;99.90
35541;DHT22;21650;48.840;9.162;2024-03-08T04:43:17;1.70;99.90
35541;DHT22;21650;48.840;9.162;2024-03-08T04:45:44;1.70;99.90
35541;DHT22;21650;48.840;9.162;2024-03-08T04:48:10;1.60;99.90
35541;DHT22;21650;48.840;9.162;2024-03-08T04:50:37;1.60;99.90
35541;DHT22;21650;48.840;9.162;2024-03-08T04:53:03;1.60;99.90
35541;DHT22;21650;48.840;9.162;2024-03-08T04:55:30;1.60;99.90
35541;DHT22;21650;48.840;9.162;2024-03-08T04:57:55;1.60;99.90
35541;DHT22;21650;48.840;9.162;2024-03-08T05:00:21;1.50;99.90
35541;DHT22;21650;48.840;9.162;2024-03-08T05:02:47;1.60;99.90
35541;DHT22;21650;48.840;9.162;2024-03-08T05:05:12;1.60;99.90
35541;DHT22;21650;48.840;9.162;2024-03-08T05:07:41;1.60;99.90
35541;DHT22;21650;48.840;9.162;2024-03-08T05:10:09;1.60;99.90
35541;DHT22;21650;48.840;9.162;2024-03-08T05:12:34;1.60;99.90
35541;DHT22;21650;48.840;9.162;2024-03-08T05:15:00;1.60;99.90
35541;DHT22;21650;48.840;9.162;2024-03-08T05:17:26;1.60;99.90
35541;DHT22;21650;48.840;9.162;2024-03-08T05:19:51;1.60;99.90
35541;DHT22;21650;48.840;9.162;2024-03-08T05:22:17;1.60;99.90
35541;DHT22;21650;48.840;9.162;2024-03-08T05:24:44;1.60;99.90
35541;DHT22;21650;48.840;9.162;2024-03-08T05:27:10;1.60;99.90
35541;DHT22;21650;48.840;9.162;2024-03-08T05:29:36;1.60;99.90
35541;DHT22;21650;48.840;9.162;2024-03-08T05:32:02;1.60;99.90
35541;DHT22;21650;48.840;9.162;2024-03-08T05:34:29;1.60;99.90
35541;DHT22;21650;48.840;9.162;2024-03-08T05:36:55;1.60;99.90
35541;DHT22;21650;48.840;9.162;2024-03-08T05:39:20;1.60;99.90
35541;DHT22;21650;48.840;9.162;2024-03-08T05:41:46;1.60;99.90
35541;DHT22;21650;48.840;9.162;2024-03-08T05:44:12;1.60;99.90
35541;DHT22;21650;48.840;9.162;2024-03-08T05:46:38;1.60;99.90
35541;DHT22;21650;48.840;9.162;2024-03-08T05:49:05;1.60;99.90
35541;DHT22;21650;48.840;9.162;2024-03-08T05:51:32;1.50;99.90
35541;DHT22;21650;48.840;9.162;2024-03-08T05:54:00;1.50;99.90
35541;DHT22;21650;48.840;9.162;2024-03-08T05:56:26;1.50;99.90
35541;DHT22;21650;48.840;9.162;2024-03-08T05:58:54;1.50;99.90
35541;DHT22;21650;48.840;9.162;2024-03-08T06:01:20;1.50;99.90
35541;DHT22;21650;48.840;9.162;2024-03-08T06:03:45;1.50;99.90
35541;DHT22;21650;48.840;9.162;2024-03-08T06:06:13;1.50;99.90
35541;DHT22;21650;48.840;9.162;2024-03-08T06:08:39;1.50;99.90
35541;DHT22;21650;48.840;9.162;2024-03-08T06:11:05;1.50;99.90
35541;DHT22;21650;48.840;9.162;2024-03-08T06:13:32;1.50;99.90
35541;DHT22;21650;48.840;9.162;2024-03-08T06:15:59;1.50;99.90
35541;DHT22;21650;48.840;9.162;2024-03-08T06:18:26;1.50;99.90
35541;DHT22;21650;48.840;9.162;2024-03-08T06:20:52;1.50;99.90
35541;DHT22;21650;48.840;9.162;2024-03-08T06:23:18;1.50;99.90
35541;DHT22;21650;48.840;9.162;2024-03-08T06:25:44;1.50;99.90
35541;DHT22;21650;48.840;9.162;2024-03-08T06:28:10;1.60;99.90
35541;DHT22;21650;48.840;9.162;2024-03-08T06:30:36;1.60;99.90
35541;DHT22;21650;48.840;9.162;2024-03-08T06:33:01;1.60;99.90
35541;DHT22;21650;48.840;9.162;2024-03-08T06:35:27;1.70;99.90
35541;DHT22;21650;48.840;9.162;2024-03-08T06:37:53;1.80;99.90
35541;DHT22;21650;48.840;9.162;2024-03-08T06:40:19;1.80;99.90
35541;DHT22;21650;48.840;9.162;2024-03-08T06:42:45;1.90;99.90
35541;DHT22;21650;48.840;9.162;2024-03-08T06:45:11;2.00;99.90
35541;DHT22;21650;48.840;9.162;2024-03-08T06:47:38;2.00;99.90
35541;DHT22;21650;48.840;9.162;2024-03-08T06:50:04;2.10;99.90
35541;DHT22;21650;48.840;9.162;2024-03-08T06:52:29;2.20;99.90
35541;DHT22;21650;48.840;9.162;2024-03-08T06:54:55;2.30;99.90
35541;DHT22;21650;48.840;9.162;2024-03-08T06:57:22;2.40;99.90
35541;DHT22;21650;48.840;9.162;2024-03-08T06:59:49;2.50;99.90
35541;DHT22;21650;48.840;9.162;2024-03-08T07:02:14;2.50;99.90
35541;DHT22;21650;48.840;9.162;2024-03-08T07:04:40;2.60;99.90
35541;DHT22;21650;48.840;9.162;2024-03-08T07:07:06;2.60;99.90
35541;DHT22;21650;48.840;9.162;2024-03-08T07:09:38;2.70;99.90
35541;DHT22;21650;48.840;9.162;2024-03-08T07:12:03;2.80;99.90
35541;DHT22;21650;48.840;9.162;2024-03-08T07:14:29;2.80;99.90
35541;DHT22;21650;48.840;9.162;2024-03-08T07:16:56;2.90;99.90
35541;DHT22;21650;48.840;9.162;2024-03-08T07:19:22;2.80;99.90
35541;DHT22;21650;48.840;9.162;2024-03-08T07:21:48;2.90;99.90
35541;DHT22;21650;48.840;9.162;2024-03-08T07:24:13;2.90;99.90
35541;DHT22;21650;48.840;9.162;2024-03-08T07:26:42;3.00;99.90
35541;DHT22;21650;48.840;9.162;2024-03-08T07:29:08;3.00;99.90
35541;DHT22;21650;48.840;9.162;2024-03-08T07:31:34;3.00;99.90
35541;DHT22;21650;48.840;9.162;2024-03-08T07:34:02;3.10;99.90
35541;DHT22;21650;48.840;9.162;2024-03-08T07:36:28;3.10;99.90
35541;DHT22;21650;48.840;9.162;2024-03-08T07:38:54;3.10;99.90
35541;DHT22;21650;48.840;9.162;2024-03-08T07:41:20;3.20;99.90
35541;DHT22;21650;48.840;9.162;2024-03-08T07:43:46;3.20;99.90
35541;DHT22;21650;48.840;9.162;2024-03-08T07:46:12;3.20;99.90
35541;DHT22;21650;48.840;9.162;2024-03-08T07:48:38;3.30;99.90
35541;DHT22;21650;48.840;9.162;2024-03-08T07:51:05;3.30;99.90
35541;DHT22;21650;48.840;9.162;2024-03-08T07:53:31;3.30;99.90
35541;DHT22;21650;48.840;9.162;2024-03-08T07:55:57;3.30;99.90
35541;DHT22;21650;48.840;9.162;2024-03-08T07:58:22;3.30;99.90
35541;DHT22;21650;48.840;9.162;2024-03-08T08:00:49;3.30;99.90
35541;DHT22;21650;48.840;9.162;2024-03-08T08:03:15;3.40;99.90
35541;DHT22;21650;48.840;9.162;2024-03-08T08:05:41;3.40;99.90
35541;DHT22;21650;48.840;9.162;2024-03-08T08:08:10;3.50;99.90
35541;DHT22;21650;48.840;9.162;2024-03-08T08:10:37;3.50;99.90
35541;DHT22;21650;48.840;9.162;2024-03-08T08:13:02;3.50;99.90
35541;DHT22;21650;48.840;9.162;2024-03-08T08:15:30;3.60;99.90
35541;DHT22;21650;48.840;9.162;2024-03-08T08:17:55;3.60;99.90
35541;DHT22;21650;48.840;9.162;2024-03-08T08:20:21;3.60;99.90
35541;DHT22;21650;48.840;9.162;2024-03-08T08:22:48;3.70;99.90
35541;DHT22;21650;48.840;9.162;2024-03-08T08:25:14;3.60;99.90
35541;DHT22;21650;48.840;9.162;2024-03-08T08:27:46;3.70;99.90
35541;DHT22;21650;48.840;9.162;2024-03-08T08:30:12;3.60;99.90
35541;DHT22;21650;48.840;9.162;2024-03-08T08:32:38;3.60;99.90
35541;DHT22;21650;48.840;9.162;2024-03-08T08:35:10;3.60;99.90
35541;DHT22;21650;48.840;9.162;2024-03-08T08:37:39;3.70;99.90
35541;DHT22;21650;48.840;9.162;2024-03-08T08:40:05;3.70;99.90
35541;DHT22;21650;48.840;9.162;2024-03-08T08:42:40;3.70;99.90
35541;DHT22;21650;48.840;9.162;2024-03-08T08:45:06;3.70;99.90
35541;DHT22;21650;48.840;9.162;2024-03-08T08:47:37;3.70;99.90
35541;DHT22;21650;48.840;9.162;2024-03-08T08:50:04;3.60;99.90
35541;DHT22;21650;48.840;9.162;2024-03-08T08:52:33;3.70;99.90
35541;DHT22;21650;48.840;9.162;2024-03-08T08:55:00;3.70;99.90
35541;DHT22;21650;48.840;9.162;2024-03-08T08:57:26;3.60;99.90
35541;DHT22;21650;48.840;9.162;2024-03-08T08:59:52;3.60;99.90
35541;DHT22;21650;48.840;9.162;2024-03-08T09:02:18;3.70;99.90
35541;DHT22;21650;48.840;9.162;2024-03-08T09:04:46;3.80;99.90
35541;DHT22;21650;48.840;9.162;2024-03-08T09:07:13;3.70;99.90
35541;DHT22;21650;48.840;9.162;2024-03-08T09:09:39;3.70;99.90
35541;DHT22;21650;48.840;9.162;2024-03-08T09:12:05;3.80;99.90
35541;DHT22;21650;48.840;9.162;2024-03-08T09:14:30;3.80;99.90
35541;DHT22;21650;48.840;9.162;2024-03-08T09:16:56;3.90;99.90
35541;DHT22;21650;48.840;9.162;2024-03-08T09:19:21;3.90;99.90
35541;DHT22;21650;48.840;9.162;2024-03-08T09:21:51;4.00;99.90
35541;DHT22;21650;48.840;9.162;2024-03-08T09:24:17;4.00;99.90
35541;DHT22;21650;48.840;9.162;2024-03-08T09:26:42;4.00;99.90
35541;DHT22;21650;48.840;9.162;2024-03-08T09:29:09;4.10;99.90
35541;DHT22;21650;48.840;9.162;2024-03-08T09:31:36;4.10;99.90
35541;DHT22;21650;48.840;9.162;2024-03-08T09:34:03;4.10;99.90
35541;DHT22;21650;48.840;9.162;2024-03-08T09:36:30;4.00;99.90
35541;DHT22;21650;48.840;9.162;2024-03-08T09:38:58;4.10;99.90
35541;DHT22;21650;48.840;9.162;2024-03-08T09:41:23;4.00;99.90
35541;DHT22;21650;48.840;9.162;2024-03-08T09:43:49;4.10;99.90
35541;DHT22;21650;48.840;9.162;2024-03-08T09:46:15;4.10;99.90
35541;DHT22;21650;48.840;9.162;2024-03-08T09:48:40;4.30;99.90
35541;DHT22;21650;48.840;9.162;2024-03-08T09:51:07;4.30;99.90
35541;DHT22;21650;48.840;9.162;2024-03-08T09:53:33;4.20;99.90
35541;DHT22;21650;48.840;9.162;2024-03-08T09:55:59;4.40;99.90
35541;DHT22;21650;48.840;9.162;2024-03-08T09:58:24;4.40;99.90
35541;DHT22;21650;48.840;9.162;2024-03-08T10:00:53;4.50;99.90
35541;DHT22;21650;48.840;9.162;2024-03-08T10:03:22;4.50;99.90
35541;DHT22;21650;48.840;9.162;2024-03-08T10:05:47;4.60;99.90
35541;DHT22;21650;48.840;9.162;2024-03-08T10:08:14;4.70;99.90
35541;DHT22;21650;48.840;9.162;2024-03-08T10:10:39;4.70;99.90
35541;DHT22;21650;48.840;9.162;2024-03-08T10:13:09;4.60;99.90
35541;DHT22;21650;48.840;9.162;2024-03-08T10:15:39;4.70;99.90
35541;DHT22;21650;48.840;9.162;2024-03-08T10:18:05;4.80;99.90
35541;DHT22;21650;48.840;9.162;2024-03-08T10:20:31;4.80;99.90
35541;DHT22;21650;48.840;9.162;2024-03-08T10:23:01;5.00;99.90
35541;DHT22;21650;48.840;9.162;2024-03-08T10:25:31;5.00;99.90
35541;DHT22;21650;48.840;9.162;2024-03-08T10:27:57;5.10;99.90
35541;DHT22;21650;48.840;9.162;2024-03-08T10:30:34;5.20;99.90
35541;DHT22;21650;48.840;9.162;2024-03-08T10:33:08;5.20;99.90
35541;DHT22;21650;48.840;9.162;2024-03-08T10:39:01;5.10;99.90
35541;DHT22;21650;48.840;9.162;2024-03-08T10:41:30;5.10;99.90
35541;DHT22;21650;48.840;9.162;2024-03-08T10:47:17;5.20;99.90
35541;DHT22;21650;48.840;9.162;2024-03-08T10:52:18;5.30;99.90
35541;DHT22;21650;48.840;9.162;2024-03-08T10:54:45;5.30;99.90
35541;DHT22;21650;48.840;9.162;2024-03-08T10:57:13;5.40;99.90
35541;DHT22;21650;48.840;9.162;2024-03-08T10:59:40;5.60;99.90
35541;DHT22;21650;48.840;9.162;2024-03-08T11:02:11;5.60;99.90
35541;DHT22;21650;48.840;9.162;2024-03-08T11:04:37;5.60;99.90
35541;DHT22;21650;48.840;9.162;2024-03-08T11:07:04;5.70;99.90
35541;DHT22;21650;48.840;9.162;2024-03-08T11:12:29;5.90;99.90
35541;DHT22;21650;48.840;9.162;2024-03-08T11:15:02;5.80;99.90
35541;DHT22;21650;48.840;9.162;2024-03-08T11:20:11;6.00;99.90
35541;DHT22;21650;48.840;9.162;2024-03-08T11:22:48;5.70;99.90
35541;DHT22;21650;48.840;9.162;2024-03-08T11:25:39;5.90;99.90
35541;DHT22;21650;48.840;9.162;2024-03-08T11:28:14;6.00;99.90
35541;DHT22;21650;48.840;9.162;2024-03-08T11:33:28;5.90;99.90
35541;DHT22;21650;48.840;9.162;2024-03-08T11:36:24;6.20;99.90
35541;DHT22;21650;48.840;9.162;2024-03-08T11:38:53;6.30;99.90
35541;DHT22;21650;48.840;9.162;2024-03-08T11:41:24;6.30;99.90
35541;DHT22;21650;48.840;9.162;2024-03-08T11:44:04;6.20;99.90
35541;DHT22;21650;48.840;9.162;2024-03-08T11:46:30;6.30;99.90
35541;DHT22;21650;48.840;9.162;2024-03-08T11:48:56;6.20;99.90
35541;DHT22;21650;48.840;9.162;2024-03-08T11:51:22;6.30;99.90
35541;DHT22;21650;48.840;9.162;2024-03-08T11:53:49;6.40;99.90
35541;DHT22;21650;48.840;9.162;2024-03-08T11:56:15;6.50;99.90
35541;DHT22;21650;48.840;9.162;2024-03-08T11:58:42;6.60;99.90
35541;DHT22;21650;48.840;9.162;2024-03-08T12:01:10;6.60;99.90
35541;DHT22;21650;48.840;9.162;2024-03-08T12:03:41;6.80;99.90
35541;DHT22;21650;48.840;9.162;2024-03-08T12:06:11;6.80;99.90
35541;DHT22;21650;48.840;9.162;2024-03-08T12:08:39;6.70;99.90
35541;DHT22;21650;48.840;9.162;2024-03-08T12:11:05;6.80;99.90
35541;DHT22;21650;48.840;9.162;2024-03-08T12:13:32;6.80;99.90
35541;DHT22;21650;48.840;9.162;2024-03-08T12:15:59;6.80;99.90
35541;DHT22;21650;48.840;9.162;2024-03-08T12:18:26;6.90;99.90
35541;DHT22;21650;48.840;9.162;2024-03-08T12:21:07;7.10;99.90
35541;DHT22;21650;48.840;9.162;2024-03-08T12:23:43;7.30;99.90
35541;DHT22;21650;48.840;9.162;2024-03-08T12:26:14;7.20;99.90
35541;DHT22;21650;48.840;9.162;2024-03-08T12:28:45;7.40;99.90
35541;DHT22;21650;48.840;9.162;2024-03-08T12:31:15;7.30;99.90
35541;DHT22;21650;48.840;9.162;2024-03-08T12:36:17;7.40;99.90
35541;DHT22;21650;48.840;9.162;2024-03-08T12:38:49;7.50;99.90
35541;DHT22;21650;48.840;9.162;2024-03-08T12:41:15;7.60;99.90
35541;DHT22;21650;48.840;9.162;2024-03-08T12:43:43;7.40;99.90
35541;DHT22;21650;48.840;9.162;2024-03-08T12:46:14;7.40;99.90
35541;DHT22;21650;48.840;9.162;2024-03-08T12:48:40;7.70;99.90
35541;DHT22;21650;48.840;9.162;2024-03-08T12:51:08;7.90;99.90
35541;DHT22;21650;48.840;9.162;2024-03-08T12:53:34;7.90;99.90
35541;DHT22;21650;48.840;9.162;2024-03-08T12:56:00;7.90;99.90
35541;DHT22;21650;48.840;9.162;2024-03-08T12:58:26;8.00;99.90
35541;DHT22;21650;48.840;9.162;2024-03-08T13:00:52;8.10;99.90
35541;DHT22;21650;48.840;9.162;2024-03-08T13:03:18;8.20;99.90
35541;DHT22;21650;48.840;9.162;2024-03-08T13:05:43;8.30;99.90
35541;DHT22;21650;48.840;9.162;2024-03-08T13:08:09;8.20;99.90
35541;DHT22;21650;48.840;9.162;2024-03-08T13:10:41;8.10;99.90
35541;DHT22;21650;48.840;9.162;2024-03-08T13:13:09;8.20;99.90
35541;DHT22;21650;48.840;9.162;2024-03-08T13:15:35;8.40;99.90
35541;DHT22;21650;48.840;9.162;2024-03-08T13:18:01;8.40;99.90
35541;DHT22;21650;48.840;9.162;2024-03-08T13:20:27;8.60;99.90
35541;DHT22;21650;48.840;9.162;2024-03-08T13:22:54;8.60;99.90
35541;DHT22;21650;48.840;9.162;2024-03-08T13:25:19;8.60;99.90
35541;DHT22;21650;48.840;9.162;2024-03-08T13:27:45;8.60;99.90
35541;DHT22;21650;48.840;9.162;2024-03-08T13:30:12;8.60;99.90
35541;DHT22;21650;48.840;9.162;2024-03-08T13:32:42;8.80;99.90
35541;DHT22;21650;48.840;9.162;2024-03-08T13:35:13;8.90;99.90
35541;DHT22;21650;48.840;9.162;2024-03-08T13:37:43;8.90;99.90
35541;DHT22;21650;48.840;9.162;2024-03-08T13:40:09;8.90;99.90
35541;DHT22;21650;48.840;9.162;2024-03-08T13:42:44;8.80;99.90
35541;DHT22;21650;48.840;9.162;2024-03-08T13:45:10;9.00;99.90
35541;DHT22;21650;48.840;9.162;2024-03-08T13:47:37;9.00;99.90
35541;DHT22;21650;48.840;9.162;2024-03-08T13:50:03;9.10;99.90
35541;DHT22;21650;48.840;9.162;2024-03-08T13:52:29;9.10;99.90
35541;DHT22;21650;48.840;9.162;2024-03-08T13:54:55;9.20;99.90
35541;DHT22;21650;48.840;9.162;2024-03-08T13:57:21;9.20;99.90
35541;DHT22;21650;48.840;9.162;2024-03-08T13:59:48;9.20;99.90
35541;DHT22;21650;48.840;9.162;2024-03-08T14:02:14;9.10;99.90
35541;DHT22;21650;48.840;9.162;2024-03-08T14:04:41;9.10;99.90
35541;DHT22;21650;48.840;9.162;2024-03-08T14:07:07;9.40;99.90
35541;DHT22;21650;48.840;9.162;2024-03-08T14:09:34;9.30;99.90
35541;DHT22;21650;48.840;9.162;2024-03-08T14:12:03;9.40;99.90
35541;DHT22;21650;48.840;9.162;2024-03-08T14:14:33;9.30;99.90
35541;DHT22;21650;48.840;9.162;2024-03-08T14:17:01;9.40;99.90
35541;DHT22;21650;48.840;9.162;2024-03-08T14:19:27;9.50;99.90
35541;DHT22;21650;48.840;9.162;2024-03-08T14:21:53;9.40;99.90
35541;DHT22;21650;48.840;9.162;2024-03-08T14:24:19;9.50;99.90
35541;DHT22;21650;48.840;9.162;2024-03-08T14:26:45;9.40;99.90
35541;DHT22;21650;48.840;9.162;2024-03-08T14:29:11;9.40;99.90
35541;DHT22;21650;48.840;9.162;2024-03-08T14:31:38;9.60;99.90
35541;DHT22;21650;48.840;9.162;2024-03-08T14:34:04;9.80;99.90
35541;DHT22;21650;48.840;9.162;2024-03-08T14:36:30;9.90;99.90
35541;DHT22;21650;48.840;9.162;2024-03-08T14:38:55;9.80;99.90
35541;DHT22;21650;48.840;9.162;2024-03-08T14:41:21;9.80;99.90
35541;DHT22;21650;48.840;9.162;2024-03-08T14:43:49;9.80;99.90
35541;DHT22;21650;48.840;9.162;2024-03-08T14:46:18;9.90;99.90
35541;DHT22;21650;48.840;9.162;2024-03-08T14:48:46;9.90;99.90
35541;DHT22;21650;48.840;9.162;2024-03-08T14:51:13;9.90;99.90
35541;DHT22;21650;48.840;9.162;2024-03-08T14:53:43;10.00;99.90
35541;DHT22;21650;48.840;9.162;2024-03-08T14:56:11;10.00;99.90
35541;DHT22;21650;48.840;9.162;2024-03-08T14:58:44;10.10;99.90
35541;DHT22;21650;48.840;9.162;2024-03-08T15:01:10;10.20;99.90
35541;DHT22;21650;48.840;9.162;2024-03-08T15:03:38;10.20;99.90
35541;DHT22;21650;48.840;9.162;2024-03-08T15:06:04;10.10;99.90
35541;DHT22;21650;48.840;9.162;2024-03-08T15:08:37;10.10;99.90
35541;DHT22;21650;48.840;9.162;2024-03-08T15:11:04;10.00;99.90
35541;DHT22;21650;48.840;9.162;2024-03-08T15:13:31;10.10;99.90
35541;DHT22;21650;48.840;9.162;2024-03-08T15:16:13;10.00;99.90
35541;DHT22;21650;48.840;9.162;2024-03-08T15:18:44;10.20;99.90
35541;DHT22;21650;48.840;9.162;2024-03-08T15:21:14;10.10;99.90
35541;DHT22;21650;48.840;9.162;2024-03-08T15:23:47;10.20;99.90
35541;DHT22;21650;48.840;9.162;2024-03-08T15:26:16;10.20;99.90
35541;DHT22;21650;48.840;9.162;2024-03-08T15:28:43;10.10;99.90
35541;DHT22;21650;48.840;9.162;2024-03-08T15:31:11;10.20;99.90
35541;DHT22;21650;48.840;9.162;2024-03-08T15:33:38;10.20;99.90
35541;DHT22;21650;48.840;9.162;2024-03-08T15:36:11;10.10;99.90
35541;DHT22;21650;48.840;9.162;2024-03-08T15:38:39;10.20;99.90
35541;DHT22;21650;48.840;9.162;2024-03-08T15:41:05;10.10;99.90
35541;DHT22;21650;48.840;9.162;2024-03-08T15:43:41;10.10;99.90
35541;DHT22;21650;48.840;9.162;2024-03-08T15:46:08;10.10;99.90
35541;DHT22;21650;48.840;9.162;2024-03-08T15:48:35;10.20;99.90
35541;DHT22;21650;48.840;9.162;2024-03-08T15:51:04;10.00;99.90
35541;DHT22;21650;48.840;9.162;2024-03-08T15:53:35;9.90;99.90
35541;DHT22;21650;48.840;9.162;2024-03-08T15:56:02;9.90;99.90
35541;DHT22;21650;48.840;9.162;2024-03-08T15:58:34;9.80;99.90
35541;DHT22;21650;48.840;9.162;2024-03-08T16:01:03;9.80;99.90
35541;DHT22;21650;48.840;9.162;2024-03-08T16:03:32;9.80;99.90
35541;DHT22;21650;48.840;9.162;2024-03-08T16:05:58;9.80;99.90